createdAt,value
2019-01-25T00:00:51.049Z,62.39
2019-01-25T00:03:20.288Z,61.91
2019-01-25T00:05:49.453Z,60.51
2019-01-25T00:08:18.583Z,59.37
2019-01-25T00:10:51.558Z,58.69
2019-01-25T00:13:20.702Z,61.97
2019-01-25T00:15:51.838Z,62.20
2019-01-25T00:18:20.946Z,62.17
2019-01-25T00:20:56.136Z,60.48
2019-01-25T00:23:25.245Z,60.18
2019-01-25T00:25:56.369Z,59.14
2019-01-25T00:28:27.427Z,60.78
2019-01-25T00:30:59.039Z,59.50
2019-01-25T00:33:29.878Z,59.81
2019-01-25T00:35:59.642Z,61.35
2019-01-25T00:38:30.928Z,59.86
2019-01-25T00:41:00.256Z,63.32
2019-01-25T00:43:29.389Z,60.28
2019-01-25T00:46:00.359Z,62.12
2019-01-25T00:48:34.167Z,63.41
2019-01-25T00:51:03.428Z,60.64
2019-01-25T00:53:32.764Z,60.14
2019-01-25T00:56:02.015Z,61.05
2019-01-25T00:58:33.745Z,60.36
2019-01-25T01:01:04.895Z,59.49
2019-01-25T01:03:35.677Z,58.18
2019-01-25T01:06:05.045Z,57.13
2019-01-25T01:08:36.852Z,56.36
2019-01-25T01:11:06.005Z,56.29
2019-01-25T01:13:35.138Z,56.39
2019-01-25T01:16:08.165Z,59.78
2019-01-25T01:18:37.347Z,59.18
2019-01-25T01:21:06.472Z,57.64
2019-01-25T01:23:39.182Z,57.75
2019-01-25T01:26:08.363Z,57.54
2019-01-25T01:28:39.573Z,58.14
2019-01-25T01:31:11.389Z,57.99
2019-01-25T01:33:40.582Z,58.61
2019-01-25T01:36:12.268Z,58.94
2019-01-25T01:38:41.489Z,57.65
2019-01-25T01:41:16.720Z,58.23
2019-01-25T01:43:47.394Z,57.61
2019-01-25T01:46:16.527Z,57.92
2019-01-25T01:48:50.200Z,56.32
2019-01-25T01:51:20.670Z,57.95
2019-01-25T01:53:52.806Z,57.04
2019-01-25T01:56:22.268Z,56.57
2019-01-25T01:58:52.589Z,56.15
2019-01-25T02:01:23.618Z,57.66
2019-01-25T02:03:57.224Z,57.41
2019-01-25T02:06:26.863Z,56.92
2019-01-25T02:08:56.442Z,55.65
2019-01-25T02:11:25.619Z,56.84
2019-01-25T02:13:54.850Z,54.84
2019-01-25T02:16:25.319Z,54.86
2019-01-25T02:18:59.160Z,55.28
2019-01-25T02:21:33.507Z,55.95
2019-01-25T02:24:06.074Z,54.85
2019-01-25T02:26:38.821Z,56.19
2019-01-25T02:29:07.930Z,56.19
2019-01-25T02:31:37.054Z,55.78
2019-01-25T02:34:06.214Z,57.22
2019-01-25T02:36:46.929Z,55.23
2019-01-25T02:39:16.240Z,59.27
2019-01-25T02:41:45.426Z,57.93
2019-01-25T02:44:16.297Z,58.70
2019-01-25T02:46:45.769Z,56.64
2019-01-25T02:49:18.174Z,57.72
2019-01-25T02:51:50.244Z,56.01
2019-01-25T02:54:26.075Z,57.80
2019-01-25T02:56:58.119Z,58.91
2019-01-25T02:59:30.458Z,59.38
2019-01-25T03:01:59.759Z,57.58
2019-01-25T03:04:30.331Z,57.39
2019-01-25T03:06:59.555Z,55.15
2019-01-25T03:09:31.551Z,55.76
2019-01-25T03:12:00.707Z,56.81
2019-01-25T03:14:35.726Z,56.01
2019-01-25T03:17:08.039Z,56.57
2019-01-25T03:19:37.196Z,58.51
2019-01-25T03:22:12.575Z,57.75
2019-01-25T03:24:41.735Z,57.77
2019-01-25T03:27:11.381Z,58.83
2019-01-25T03:29:40.579Z,57.83
2019-01-25T03:32:09.798Z,58.56
2019-01-25T03:34:38.926Z,59.52
2019-01-25T03:37:17.929Z,60.20
2019-01-25T03:39:47.473Z,61.79
2019-01-25T03:42:16.722Z,60.25
2019-01-25T03:44:46.169Z,59.42
2019-01-25T03:47:15.848Z,60.09
2019-01-25T03:49:45.748Z,59.92
2019-01-25T03:52:18.868Z,60.62
2019-01-25T03:54:48.061Z,59.84
2019-01-25T03:57:17.315Z,61.52
2019-01-25T03:59:46.592Z,59.82
2019-01-25T04:02:18.690Z,58.56
2019-01-25T04:04:52.128Z,57.73
2019-01-25T04:07:22.184Z,57.16
2019-01-25T04:09:52.244Z,55.12
2019-01-25T04:12:22.058Z,57.29
2019-01-25T04:14:54.478Z,56.59
2019-01-25T04:17:23.519Z,55.51
2019-01-25T04:19:54.375Z,55.55
2019-01-25T04:22:38.664Z,56.88
2019-01-25T04:25:11.725Z,56.62
2019-01-25T04:27:43.587Z,57.12
2019-01-25T04:30:17.884Z,57.84
2019-01-25T04:32:47.368Z,57.87
2019-01-25T04:35:18.502Z,56.58
2019-01-25T04:37:48.146Z,57.28
2019-01-25T04:40:23.011Z,57.44
2019-01-25T04:42:52.347Z,58.23
2019-01-25T04:45:24.979Z,57.42
2019-01-25T04:47:55.078Z,57.37
2019-01-25T04:50:25.758Z,57.23
2019-01-25T04:52:55.642Z,57.72
2019-01-25T04:55:31.721Z,58.51
2019-01-25T04:58:17.895Z,58.86
2019-01-25T05:00:48.951Z,57.29
2019-01-25T05:03:22.619Z,57.87
2019-01-25T05:05:53.239Z,58.37
2019-01-25T05:08:22.910Z,57.29
2019-01-25T05:10:54.259Z,58.92
2019-01-25T05:13:27.951Z,59.79
2019-01-25T05:15:57.306Z,58.58
2019-01-25T05:18:28.416Z,58.57
2019-01-25T05:21:02.793Z,60.75
2019-01-25T05:23:33.956Z,60.04
2019-01-25T05:26:08.815Z,59.70
2019-01-25T05:28:39.860Z,60.44
2019-01-25T05:31:10.874Z,60.90
2019-01-25T05:33:41.457Z,60.63
2019-01-25T05:36:10.574Z,59.76
2019-01-25T05:38:48.798Z,61.51
2019-01-25T05:41:17.993Z,62.02
2019-01-25T05:43:48.002Z,62.19
2019-01-25T05:46:17.259Z,61.25
2019-01-25T05:48:54.196Z,63.13
2019-01-25T05:51:24.683Z,63.50
2019-01-25T05:53:54.298Z,63.31
2019-01-25T05:56:26.764Z,63.38
2019-01-25T05:59:00.410Z,63.82
2019-01-25T06:01:35.664Z,62.76
2019-01-25T06:04:07.307Z,62.52
2019-01-25T06:06:36.452Z,61.40
2019-01-25T06:09:10.336Z,62.33
2019-01-25T06:11:40.463Z,60.47
2019-01-25T06:14:11.444Z,62.67
2019-01-25T06:16:44.559Z,63.39
2019-01-25T06:19:13.995Z,64.33
2019-01-25T06:21:47.674Z,65.18
2019-01-25T06:24:17.170Z,64.45
2019-01-25T06:26:51.754Z,64.92
2019-01-25T06:29:21.726Z,65.83
2019-01-25T06:31:50.873Z,64.27
2019-01-25T06:34:23.920Z,64.06
2019-01-25T06:36:53.712Z,62.97
2019-01-25T06:39:26.911Z,63.59
2019-01-25T06:41:59.072Z,65.54
2019-01-25T06:44:33.746Z,65.08
2019-01-25T06:47:07.122Z,64.22
2019-01-25T06:49:41.865Z,63.59
2019-01-25T06:52:11.164Z,63.78
2019-01-25T06:54:42.163Z,64.16
2019-01-25T06:57:25.986Z,63.31
2019-01-25T06:59:55.312Z,64.13
2019-01-25T07:02:34.007Z,65.63
2019-01-25T07:05:03.741Z,63.87
2019-01-25T07:07:35.110Z,62.76
2019-01-25T07:10:07.835Z,64.14
2019-01-25T07:12:37.381Z,64.03
2019-01-25T07:15:14.280Z,62.60
2019-01-25T07:17:44.462Z,61.35
2019-01-25T07:20:24.962Z,61.24
2019-01-25T07:23:01.962Z,61.70
2019-01-25T07:25:32.288Z,60.80
2019-01-25T07:28:01.417Z,61.14
2019-01-25T07:30:30.968Z,62.31
2019-01-25T07:33:00.917Z,61.99
2019-01-25T07:35:32.482Z,61.72
2019-01-25T07:38:01.652Z,61.72
2019-01-25T07:40:31.121Z,61.94
2019-01-25T07:43:02.504Z,62.38
2019-01-25T07:45:37.996Z,63.46
2019-01-25T07:48:09.176Z,62.36
2019-01-25T07:50:38.440Z,63.21
2019-01-25T07:53:17.379Z,63.67
2019-01-25T07:55:46.611Z,66.10
2019-01-25T07:58:19.081Z,63.61
2019-01-25T08:00:49.464Z,64.37
2019-01-25T08:03:19.190Z,64.19
2019-01-25T08:05:48.361Z,63.60
2019-01-25T08:08:19.535Z,62.85
2019-01-25T08:10:49.474Z,64.36
2019-01-25T08:13:18.717Z,65.70
2019-01-25T08:15:47.883Z,64.71
2019-01-25T08:18:17.046Z,63.45
2019-01-25T08:20:46.262Z,64.79
2019-01-25T08:23:41.765Z,65.28
2019-01-25T08:26:10.945Z,64.39
2019-01-25T08:28:40.095Z,65.48
2019-01-25T08:31:09.246Z,66.24
2019-01-25T08:33:39.207Z,65.49
2019-01-25T08:36:08.865Z,63.91
2019-01-25T08:38:59.481Z,64.20
2019-01-25T08:41:30.019Z,65.35
2019-01-25T08:44:10.249Z,66.48
2019-01-25T08:46:39.442Z,66.80
2019-01-25T08:49:09.801Z,66.07
2019-01-25T08:51:41.297Z,63.29
2019-01-25T08:54:10.704Z,61.01
2019-01-25T08:56:43.481Z,62.79
2019-01-25T08:59:15.681Z,61.41
2019-01-25T09:01:44.822Z,61.78
2019-01-25T09:04:14.028Z,63.25
2019-01-25T09:06:44.371Z,63.10
2019-01-25T09:09:16.264Z,61.08
2019-01-25T09:11:48.229Z,63.70
2019-01-25T09:14:19.238Z,63.09
2019-01-25T09:16:48.371Z,64.71
2019-01-25T09:19:21.763Z,64.28
2019-01-25T09:21:51.615Z,65.85
2019-01-25T09:24:21.889Z,62.88
2019-01-25T09:26:51.525Z,61.78
2019-01-25T09:29:22.072Z,64.68
2019-01-25T09:31:54.945Z,64.11
2019-01-25T09:34:24.850Z,62.53
2019-01-25T09:36:56.739Z,61.41
2019-01-25T09:39:26.005Z,60.04
2019-01-25T09:42:00.380Z,59.94
2019-01-25T09:44:29.556Z,63.25
2019-01-25T09:47:03.702Z,62.45
2019-01-25T09:49:38.747Z,62.67
2019-01-25T09:52:11.028Z,63.48
2019-01-25T09:54:40.283Z,63.36
2019-01-25T09:57:14.109Z,62.67
2019-01-25T09:59:43.279Z,62.89
2019-01-25T10:02:12.515Z,61.38
2019-01-25T10:04:41.731Z,62.07
2019-01-25T10:07:15.988Z,61.84
2019-01-25T10:09:45.492Z,62.79
2019-01-25T10:12:15.008Z,62.47
2019-01-25T10:14:44.560Z,61.92
2019-01-25T10:17:15.107Z,62.39
2019-01-25T10:19:47.415Z,61.55
2019-01-25T10:22:21.952Z,60.25
2019-01-25T10:24:51.076Z,59.64
2019-01-25T10:27:21.345Z,60.04
2019-01-25T10:29:52.340Z,61.54
2019-01-25T10:32:28.940Z,60.40
2019-01-25T10:34:59.067Z,60.78
2019-01-25T10:37:28.224Z,61.24
2019-01-25T10:40:03.083Z,62.70
2019-01-25T10:42:32.338Z,63.21
2019-01-25T10:45:04.481Z,62.67
2019-01-25T10:47:35.104Z,62.17
2019-01-25T10:50:16.397Z,61.91
2019-01-25T10:52:45.575Z,61.68
2019-01-25T10:55:15.581Z,61.86
2019-01-25T10:57:44.781Z,63.56
2019-01-25T11:00:16.103Z,64.10
2019-01-25T11:03:01.962Z,63.49
2019-01-25T11:05:24.747Z,62.84
2019-01-25T11:07:54.816Z,62.09
2019-01-25T11:10:24.309Z,61.50
2019-01-25T11:13:00.750Z,62.62
2019-01-25T11:15:27.358Z,63.24
2019-01-25T11:17:59.533Z,63.07
2019-01-25T11:20:29.580Z,61.56
2019-01-25T11:23:00.601Z,60.68
2019-01-25T11:25:35.897Z,60.16
2019-01-25T11:28:05.818Z,58.28
2019-01-25T11:30:38.686Z,59.73
2019-01-25T11:33:10.458Z,56.67
2019-01-25T11:35:40.260Z,58.38
2019-01-25T11:38:15.275Z,56.15
2019-01-25T11:40:50.725Z,56.29
2019-01-25T11:43:21.320Z,56.72
2019-01-25T11:46:12.497Z,57.75
2019-01-25T11:48:42.227Z,56.17
2019-01-25T11:51:14.794Z,57.24
2019-01-25T11:53:43.995Z,55.04
2019-01-25T11:56:15.187Z,57.45
2019-01-25T11:58:48.621Z,55.58
2019-01-25T12:01:23.328Z,55.09
2019-01-25T12:03:53.804Z,57.24
2019-01-25T12:06:30.019Z,59.17
2019-01-25T12:09:01.335Z,55.21
2019-01-25T12:11:30.739Z,56.12
2019-01-25T12:14:00.592Z,57.91
2019-01-25T12:16:30.069Z,57.12
2019-01-25T12:19:01.705Z,58.98
2019-01-25T12:21:32.002Z,58.63
2019-01-25T12:24:01.172Z,57.74
2019-01-25T12:26:30.392Z,57.47
2019-01-25T12:29:03.699Z,56.73
2019-01-25T12:31:38.013Z,57.88
2019-01-25T12:34:07.344Z,55.92
2019-01-25T12:36:39.354Z,56.45
2019-01-25T12:39:10.239Z,57.08
2019-01-25T12:41:39.396Z,55.11
2019-01-25T12:44:09.430Z,56.60
2019-01-25T12:46:38.756Z,56.67
2019-01-25T12:49:11.745Z,54.34
2019-01-25T12:51:50.761Z,55.69
2019-01-25T12:54:23.796Z,57.14
2019-01-25T12:56:55.713Z,58.61
2019-01-25T12:59:24.950Z,60.76
2019-01-25T13:01:54.286Z,57.05
2019-01-25T13:04:26.245Z,58.39
2019-01-25T13:06:55.370Z,58.21
2019-01-25T13:09:27.162Z,57.97
2019-01-25T13:11:56.341Z,60.70
2019-01-25T13:14:26.551Z,58.52
2019-01-25T13:16:56.478Z,57.50
2019-01-25T13:19:28.598Z,56.11
2019-01-25T13:22:03.726Z,55.44
2019-01-25T13:24:35.603Z,55.63
2019-01-25T13:27:11.435Z,55.83
2019-01-25T13:29:42.818Z,53.78
2019-01-25T13:32:21.404Z,52.83
2019-01-25T13:34:50.571Z,56.46
2019-01-25T13:37:19.840Z,56.83
2019-01-25T13:39:55.631Z,56.25
2019-01-25T13:42:25.837Z,56.52
2019-01-25T13:44:55.497Z,58.71
2019-01-25T13:47:27.603Z,59.23
2019-01-25T13:49:56.883Z,57.13
2019-01-25T13:52:26.031Z,56.29
2019-01-25T13:54:55.175Z,56.94
2019-01-25T13:57:27.900Z,59.95
2019-01-25T13:59:57.786Z,59.08
2019-01-25T14:02:27.022Z,59.60
2019-01-25T14:04:59.781Z,61.59
2019-01-25T14:07:31.073Z,61.06
2019-01-25T14:10:05.959Z,63.98
2019-01-25T14:12:37.433Z,65.31
2019-01-25T14:15:11.992Z,65.25
2019-01-25T14:17:42.121Z,63.59
2019-01-25T14:20:22.940Z,61.36
2019-01-25T14:22:48.020Z,61.98
2019-01-25T14:25:17.237Z,62.75
2019-01-25T14:27:46.874Z,61.29
2019-01-25T14:30:39.601Z,62.75
2019-01-25T14:33:12.828Z,62.45
2019-01-25T14:35:45.803Z,62.13
2019-01-25T14:38:20.303Z,62.64
2019-01-25T14:40:51.531Z,62.63
2019-01-25T14:43:20.679Z,63.19
2019-01-25T14:45:50.004Z,63.36
2019-01-25T14:48:19.293Z,63.79
2019-01-25T14:50:49.342Z,64.20
2019-01-25T14:53:27.969Z,63.53
2019-01-25T14:55:54.027Z,64.38
2019-01-25T14:58:25.359Z,63.70
2019-01-25T15:00:59.248Z,62.63
2019-01-25T15:03:30.432Z,62.49
2019-01-25T15:06:02.212Z,63.13
2019-01-25T15:08:31.826Z,63.10
2019-01-25T15:11:05.140Z,64.34
2019-01-25T15:13:35.548Z,63.16
2019-01-25T15:16:06.201Z,64.92
2019-01-25T15:18:36.704Z,63.06
2019-01-25T15:21:10.358Z,63.10
2019-01-25T15:23:39.493Z,62.57
2019-01-25T15:26:08.869Z,62.55
2019-01-25T15:28:48.205Z,64.56
2019-01-25T15:31:18.394Z,62.40
2019-01-25T15:33:50.409Z,63.52
2019-01-25T15:36:19.980Z,63.20
2019-01-25T15:38:49.335Z,64.06
2019-01-25T15:41:19.313Z,63.84
2019-01-25T15:43:51.563Z,65.41
2019-01-25T15:46:20.888Z,63.82
2019-01-25T15:48:51.172Z,63.13
2019-01-25T15:51:21.128Z,62.50
2019-01-25T15:53:50.316Z,63.43
2019-01-25T15:56:19.556Z,63.97
2019-01-25T15:58:50.080Z,63.11
2019-01-25T16:01:22.013Z,62.49
2019-01-25T16:03:51.504Z,63.81
2019-01-25T16:06:21.825Z,63.45
2019-01-25T16:09:02.558Z,62.08
2019-01-25T16:11:33.067Z,63.36
2019-01-25T16:14:03.604Z,63.59
2019-01-25T16:16:35.881Z,62.37
2019-01-25T16:19:05.271Z,62.97
2019-01-25T16:21:34.550Z,61.36
2019-01-25T16:24:04.521Z,60.08
2019-01-25T16:26:37.480Z,60.87
2019-01-25T16:29:07.603Z,61.96
2019-01-25T16:31:39.285Z,62.16
2019-01-25T16:34:08.504Z,61.26
2019-01-25T16:36:37.898Z,60.67
2019-01-25T16:39:09.170Z,60.05
2019-01-25T16:41:38.335Z,60.03
2019-01-25T16:44:09.117Z,61.31
2019-01-25T16:46:41.225Z,59.83
2019-01-25T16:49:23.958Z,60.33
2019-01-25T16:51:53.464Z,61.94
2019-01-25T16:54:27.469Z,60.89
2019-01-25T16:57:00.069Z,62.31
2019-01-25T16:59:37.762Z,62.31
2019-01-25T17:02:08.334Z,62.31
2019-01-25T17:04:39.259Z,63.15
2019-01-25T17:07:10.451Z,62.14
2019-01-25T17:09:41.435Z,63.33
2019-01-25T17:12:12.166Z,63.60
2019-01-25T17:14:42.589Z,63.95
2019-01-25T17:17:11.738Z,63.02
2019-01-25T17:19:44.320Z,63.88
2019-01-25T17:22:16.753Z,63.78
2019-01-25T17:24:48.855Z,64.98
2019-01-25T17:27:21.457Z,64.72
2019-01-25T17:29:50.919Z,64.95
2019-01-25T17:32:21.342Z,64.93
2019-01-25T17:34:53.379Z,64.56
2019-01-25T17:37:27.750Z,65.12
2019-01-25T17:39:56.929Z,65.02
2019-01-25T17:42:26.406Z,64.39
2019-01-25T17:44:56.022Z,64.53
2019-01-25T17:47:29.360Z,64.92
2019-01-25T17:50:01.416Z,65.50
2019-01-25T17:52:31.861Z,65.08
2019-01-25T17:55:01.290Z,65.39
2019-01-25T17:57:33.265Z,66.25
2019-01-25T18:00:04.308Z,65.85
2019-01-25T18:02:33.457Z,64.60
2019-01-25T18:05:02.609Z,65.59
2019-01-25T18:07:35.130Z,65.41
2019-01-25T18:10:07.276Z,64.53
2019-01-25T18:12:42.546Z,65.85
2019-01-25T18:15:15.578Z,67.38
2019-01-25T18:17:46.085Z,67.72
2019-01-25T18:20:16.312Z,67.58
2019-01-25T18:22:47.604Z,68.02
2019-01-25T18:25:34.655Z,67.86
2019-01-25T18:28:11.315Z,67.98
2019-01-25T18:30:49.932Z,67.04
2019-01-25T18:33:19.179Z,67.05
2019-01-25T18:35:48.327Z,67.16
2019-01-25T18:38:19.121Z,66.95
2019-01-25T18:40:48.320Z,67.31
2019-01-25T18:43:21.218Z,67.13
2019-01-25T18:45:51.632Z,67.13
2019-01-25T18:48:27.177Z,67.57
2019-01-25T18:50:56.537Z,68.07
2019-01-25T18:53:29.875Z,68.20
2019-01-25T18:55:57.072Z,67.79
2019-01-25T18:58:26.229Z,67.91
2019-01-25T19:01:03.182Z,67.77
2019-01-25T19:03:34.130Z,65.98
2019-01-25T19:06:07.715Z,66.89
2019-01-25T19:08:36.961Z,67.11
2019-01-25T19:11:06.211Z,68.17
2019-01-25T19:13:36.592Z,67.69
2019-01-25T19:16:10.132Z,68.31
2019-01-25T19:18:43.455Z,68.10
2019-01-25T19:21:11.655Z,68.13
2019-01-25T19:23:40.743Z,67.23
2019-01-25T19:26:10.170Z,68.32
2019-01-25T19:28:43.984Z,68.30
2019-01-25T19:31:19.995Z,68.76
2019-01-25T19:33:49.893Z,68.76
2019-01-25T19:36:19.922Z,68.08
2019-01-25T19:38:53.440Z,68.81
2019-01-25T19:41:25.422Z,67.93
2019-01-25T19:43:56.833Z,67.18
2019-01-25T19:49:20.180Z,67.08
2019-01-25T19:51:49.320Z,68.49
2019-01-25T19:54:19.535Z,67.85
2019-01-25T19:56:51.245Z,68.38
2019-01-25T19:59:24.304Z,68.22
2019-01-25T20:01:53.447Z,68.20
2019-01-25T20:04:23.758Z,66.99
2019-01-25T20:06:56.126Z,67.62
2019-01-25T20:09:31.001Z,67.27
2019-01-25T20:12:02.522Z,67.70
2019-01-25T20:14:31.664Z,67.63
2019-01-25T20:17:00.947Z,67.47
2019-01-25T20:19:34.598Z,67.80
2019-01-25T20:22:04.140Z,68.31
2019-01-25T20:24:36.530Z,67.64
2019-01-25T20:27:06.192Z,66.96
2019-01-25T20:29:36.849Z,67.24
2019-01-25T20:32:06.566Z,66.77
2019-01-25T20:34:38.286Z,66.87
2019-01-25T20:37:10.142Z,66.32
2019-01-25T20:39:39.429Z,65.84
2019-01-25T20:42:08.508Z,66.30
2019-01-25T20:44:38.669Z,66.44
2019-01-25T20:47:13.788Z,65.99
2019-01-25T20:49:42.987Z,67.06
2019-01-25T20:52:13.272Z,66.03
2019-01-25T20:54:52.285Z,67.34
2019-01-25T20:57:24.638Z,66.91
2019-01-25T21:00:08.578Z,65.61
2019-01-25T21:02:35.777Z,65.85
2019-01-25T21:05:05.528Z,65.93
2019-01-25T21:07:35.895Z,65.70
2019-01-25T21:10:07.168Z,65.71
2019-01-25T21:12:36.347Z,67.04
2019-01-25T21:15:08.330Z,67.00
2019-01-25T21:17:37.561Z,66.84
2019-01-25T21:20:24.717Z,67.06
2019-01-25T21:22:55.192Z,66.10
2019-01-25T21:25:24.534Z,67.00
2019-01-25T21:27:53.663Z,67.22
2019-01-25T21:30:25.236Z,66.74
2019-01-25T21:33:00.810Z,66.84
2019-01-25T21:35:30.822Z,67.27
2019-01-25T21:38:07.590Z,67.48
2019-01-25T21:40:38.684Z,67.80
2019-01-25T21:43:10.629Z,66.33
2019-01-25T21:45:43.326Z,67.27
2019-01-25T21:48:18.101Z,67.45
2019-01-25T21:50:50.863Z,67.89
2019-01-25T21:53:21.174Z,67.35
2019-01-25T21:55:50.778Z,67.34
2019-01-25T21:58:20.131Z,68.31
2019-01-25T22:00:49.269Z,68.37
2019-01-25T22:03:18.455Z,67.89
2019-01-25T22:05:50.360Z,67.30
2019-01-25T22:08:20.876Z,68.46
2019-01-25T22:10:52.679Z,68.88
2019-01-25T22:13:25.030Z,68.01
2019-01-25T22:15:56.611Z,67.71
2019-01-25T22:18:27.221Z,68.67
2019-01-25T22:20:59.312Z,68.28
2019-01-25T22:23:28.490Z,68.54
2019-01-25T22:25:57.834Z,68.51
2019-01-25T22:28:29.159Z,68.82
2019-01-25T22:30:59.795Z,68.14
2019-01-25T22:33:29.205Z,69.62
2019-01-25T22:36:01.535Z,68.34
2019-01-25T22:38:30.845Z,68.54
2019-01-25T22:41:03.073Z,68.50
2019-01-25T22:43:32.212Z,69.96
2019-01-25T22:46:01.383Z,69.97
2019-01-25T22:48:30.498Z,71.03
2019-01-25T22:51:05.394Z,71.30
2019-01-25T22:53:38.201Z,71.59
2019-01-25T22:56:07.975Z,71.67
2019-01-25T22:58:41.976Z,72.49
2019-01-25T23:01:30.387Z,72.19
2019-01-25T23:04:27.945Z,72.39
2019-01-25T23:07:17.213Z,72.62
2019-01-25T23:09:55.127Z,72.94
2019-01-25T23:12:25.907Z,73.12
2019-01-25T23:14:55.041Z,73.45
2019-01-25T23:17:25.498Z,73.74
2019-01-25T23:19:54.617Z,74.27
2019-01-25T23:22:25.486Z,73.84
2019-01-25T23:24:57.598Z,73.65
2019-01-25T23:27:29.122Z,73.90
2019-01-25T23:29:58.597Z,73.23
2019-01-25T23:32:27.733Z,73.69
2019-01-25T23:34:58.244Z,73.55
2019-01-25T23:37:33.283Z,73.02
2019-01-25T23:40:09.143Z,72.10
2019-01-25T23:42:40.737Z,72.45
2019-01-25T23:45:12.663Z,71.64
2019-01-25T23:47:41.853Z,71.37
2019-01-25T23:50:13.377Z,72.57
2019-01-25T23:52:45.241Z,72.76
2019-01-25T23:55:18.526Z,72.77
2019-01-25T23:57:51.060Z,72.45
